x

Bodega Bay - 48nm Nnw Of San Francisco, Ca (46013) Weather Station

4:20am - Sat 25th Feb 2017 All times are PST. -8 hours from GMT.

  • Wind
    4mph, 7mph gusts
  • Sea Temp 54°f
  • Air Temp 48°f
  • Sea Pressure 1021.8mb
  • Bodega Bay - 48nm Nnw Of San Francisco, Ca
  • Bodega Bay - 48nm Nnw Of San Francisco, Ca

More Historic Weather Station data

Upgrade to MSW Pro to gain access to the past 30 days of data for over 8000 Wavebouys and Weather Stations around the globe.

Join Pro

Comparision Forecast

View Surf forecast
   
Sat 02/25 4:20am  -   -   -  4 7 mph 1021.8mb 54f 48f
4:10am  -   -   -  4 7 mph 1022mb 54f 48f
4:00am  -   -   -  2 4 mph 1022mb 54f 48f
3:50am 5.5ft 15s 8s 2 4 mph 1021.9mb 54f 48f
3:40am 5.5ft  -  8s 2 4 mph 1021.9mb 54f 48f
3:30am  -   -   -  2 4 mph 1022mb 54f 48f
3:20am  -   -   -  2 4 mph 1022mb 54f 48f
3:10am  -   -   -  2 4 mph 1022mb 54f 48f
3:00am  -   -   -  2 4 mph 1022mb 54f 48f
2:50am 6ft 15s 9s 2 4 mph 1022.3mb 54f 48f
2:40am 6ft  -  9s 2 4 mph 1022.3mb 54f 48f
2:30am  -   -   -  2 4 mph 1022.3mb 54f 48f
2:20am  -   -   -  4 7 mph 1022.4mb 54f 48f
2:10am  -   -   -  2 7 mph 1022.5mb 54f 48f
2:00am  -   -   -  4 7 mph 1022.6mb 54f 48f
1:50am 5ft 15s 8s 4 7 mph 1022.9mb 54f 48f
1:40am 5ft  -  8s 7 11 mph 1023mb 54f 48f
1:30am  -   -   -  7 9 mph 1023mb 54f 48f
1:20am  -   -   -  4 11 mph 1023.1mb 54f 48f
1:10am  -   -   -  4 7 mph 1023.3mb 54f 48f
1:00am  -   -   -  4 7 mph 1023.3mb - 48f
12:50am 5ft 15s 7s 7 11 mph 1023.1mb 54f 48f
12:40am 5ft  -  7s 7 11 mph 1023.1mb 54f 48f
12:30am  -   -   -  9 11 mph 1023.1mb 55f 48f
12:20am  -   -   -  7 11 mph 1023.1mb 55f 48f
12:10am  -   -   -  7 11 mph 1023.1mb 55f 48f
12:00am  -   -   -  7 11 mph 1023.1mb 55f 48f
Fri 02/24 11:50pm 6ft 15s 9s 9 13 mph 1023.1mb 55f 48f
11:40pm  -   -   -  11 16 mph 1023.3mb 55f 48f
11:30pm  -   -   -  13 18 mph 1023.4mb 55f 48f
11:20pm  -   -   -  11 16 mph 1023.4mb 55f 48f
11:10pm  -   -   -  13 18 mph 1023.5mb 55f 49f
11:00pm  -   -   -  7 13 mph 1023.5mb 55f 49f
10:50pm 5.5ft 16s 9s 7 9 mph 1023.6mb 55f 49f
10:40pm 5.5ft  -  9s 7 9 mph 1023.8mb 54f 49f
10:30pm  -   -   -  2 7 mph 1023.9mb 54f 48f
10:20pm  -   -   -  2 4 mph 1023.9mb 54f 48f
10:10pm  -   -   -  2 4 mph 1024mb 54f 48f
10:00pm  -   -   -  2 4 mph 1024mb 54f 48f
9:50pm 6ft 16s 9s 2 4 mph 1024mb 54f 47f
9:40pm 6ft  -  9s  -  2 mph 1024mb 54f 47f
9:30pm  -   -   -   -  7 mph 1024.2mb 54f 47f
9:20pm  -   -   -  9 16 mph 1024.2mb 54f 48f
9:10pm  -   -   -  9 11 mph 1024mb 54f 49f
9:00pm  -   -   -  9 11 mph 1024mb 54f 49f
8:50pm 5ft 15s 8s 9 11 mph 1023.9mb 54f 49f
8:40pm 5ft  -  8s 9 13 mph 1023.9mb 54f 49f
8:30pm  -   -   -  11 16 mph 1023.9mb 55f 49f
8:20pm  -   -   -  11 13 mph 1023.9mb 55f 49f
8:10pm  -   -   -  11 16 mph 1023.9mb - 49f
8:00pm  -   -   -  11 16 mph 1023.8mb 54f 49f
7:50pm 5ft 16s 8s 9 13 mph 1023.6mb 55f 49f
7:40pm 5ft  -  8s 9 13 mph 1023.8mb 55f 49f
7:30pm  -   -   -  11 13 mph 1023.8mb 54f 49f
7:20pm  -   -   -  9 13 mph 1023.6mb 55f 49f
7:10pm  -   -   -  9 13 mph 1023.6mb 55f 49f
7:00pm  -   -   -  9 13 mph 1023.8mb 55f 49f
6:50pm 5ft 16s 8s 9 13 mph 1023.8mb 55f 49f
6:40pm 5ft  -  8s 11 13 mph 1023.6mb 55f 49f
6:30pm  -   -   -  11 16 mph 1023.8mb 55f 49f
6:20pm  -   -   -  11 16 mph 1023.8mb 55f 49f
6:10pm  -   -   -  11 16 mph 1023.8mb 55f 49f
6:00pm  -   -   -  11 16 mph 1023.8mb 55f 49f
5:50pm 5ft 16s 8s 11 16 mph 1023.6mb 55f 49f
5:40pm 5ft  -  8s 11 18 mph 1023.6mb 55f 49f
5:30pm  -   -   -  11 13 mph 1023.6mb 55f 49f
5:20pm  -   -   -  11 16 mph 1023.6mb 55f 49f
5:10pm  -   -   -  11 18 mph 1023.8mb 55f 49f
5:00pm  -   -   -  11 16 mph 1023.8mb 55f 49f
4:50pm 4.5ft 16s 7s 13 16 mph 1023.8mb 55f 49f
4:40pm  -   -   -  13 16 mph 1023.8mb 55f 49f
4:30pm  -   -   -  11 16 mph 1023.9mb 55f 49f
4:20pm  -   -   -  13 18 mph 1024mb 55f 49f
4:10pm  -   -   -  13 18 mph 1024mb 55f 49f
4:00pm  -   -   -  11 16 mph 1024mb 55f 49f
3:50pm 5ft 16s 7s 11 16 mph 1024.2mb 55f 49f
3:40pm 5ft  -  7s 11 16 mph 1024.2mb 55f 49f
3:30pm  -   -   -  13 16 mph 1024.3mb 55f 49f
3:20pm  -   -   -  13 16 mph 1024.3mb 55f 49f
3:10pm  -   -   -  13 16 mph 1024.3mb 55f 49f
3:00pm  -   -   -  13 20 mph 1024.3mb 55f 49f
2:50pm 5ft 16s 7s 13 18 mph 1024.5mb 55f 49f
2:40pm 5ft  -  7s 13 18 mph 1024.5mb 55f 49f
2:30pm  -   -   -  13 16 mph 1024.5mb 55f 49f
2:20pm  -   -   -  13 18 mph 1024.5mb 54f 49f
2:10pm  -   -   -  13 18 mph 1024.5mb 54f 49f
2:00pm  -   -   -  11 16 mph 1024.5mb 54f 49f
1:50pm 5.5ft 16s 7s 13 16 mph 1024.5mb 54f 49f
1:40pm  -   -   -  11 16 mph 1024.7mb 54f 49f
1:30pm  -   -   -  11 20 mph 1024.8mb 54f 49f
1:20pm  -   -   -  13 18 mph 1024.8mb 54f 49f
1:10pm  -   -   -  11 16 mph 1024.8mb 54f 49f
1:00pm  -   -   -  13 18 mph 1025mb 54f 49f
12:50pm 5ft 16s 6s 13 18 mph 1025.2mb 54f 49f
12:40pm 5ft  -  6s 13 18 mph 1025.3mb 54f 49f
12:30pm  -   -   -  13 18 mph 1025.5mb 54f 49f
12:20pm  -   -   -  16 20 mph 1025.5mb 54f 49f
12:10pm  -   -   -  16 22 mph 1025.5mb 54f 49f
12:00pm  -   -   -  16 20 mph 1025.5mb 54f 49f
11:50am 6ft 8s 6s 16 18 mph 1025.7mb 54f 49f
11:40am 6ft  -  6s 16 20 mph 1025.8mb 54f 49f
11:30am  -   -   -  16 20 mph 1025.8mb 54f 49f
11:20am  -   -   -  16 20 mph 1025.8mb 54f 49f
11:10am  -   -   -  13 18 mph 1025.8mb 54f 48f
11:00am  -   -   -  16 20 mph 1025.8mb 54f 48f
10:50am 6ft 9s 6s 16 20 mph 1025.8mb 54f 48f
10:40am 6ft  -  6s 18 22 mph 1025.5mb 54f 48f
10:30am  -   -   -  18 20 mph 1025.5mb 54f 48f
10:20am  -   -   -  18 22 mph 1025.5mb 54f 48f
10:10am  -   -   -  16 20 mph 1025.5mb 54f 48f
10:00am  -   -   -  18 22 mph 1025.3mb 54f 48f
9:50am 6ft 9s 6s 18 22 mph 1025.3mb 54f 48f
9:40am 6ft  -  6s 16 20 mph 1025.5mb 54f 48f
9:30am  -   -   -  18 22 mph 1025.3mb 54f 48f
9:20am  -   -   -  18 22 mph 1025.3mb 54f 48f
9:10am  -   -   -  18 25 mph 1025.2mb 54f 48f
9:00am  -   -   -  18 20 mph 1025.2mb 54f 48f
8:50am 6.5ft 8s 6s 16 20 mph 1025.3mb 54f 48f
8:40am 6.5ft  -  6s 18 22 mph 1025.3mb 54f 48f
8:30am  -   -   -  16 20 mph 1025.3mb 54f 48f
8:20am  -   -   -  18 22 mph 1025.2mb 54f 48f
8:10am  -   -   -  18 20 mph 1025mb 54f 48f
8:00am  -   -   -  18 20 mph 1024.8mb 54f 48f
7:50am 6.5ft 11s 6s 16 22 mph 1024.5mb 54f 48f
7:40am 6.5ft  -  6s 16 20 mph 1024.3mb 54f 48f
7:30am  -   -   -  16 22 mph 1024.3mb 54f 48f
7:20am  -   -   -  16 20 mph 1024.3mb 54f 48f
7:10am  -   -   -  16 18 mph 1024.3mb 54f 48f
7:00am  -   -   -  16 20 mph 1024mb 54f 48f
6:50am 6ft 8s 6s 18 22 mph 1024mb 54f 48f
6:40am 6ft  -  6s 18 22 mph 1024mb 54f 48f
6:30am  -   -   -  18 25 mph 1024mb - 48f
6:20am  -   -   -  20 25 mph 1024mb 54f 48f
6:10am  -   -   -  20 25 mph 1024mb 54f 48f
6:00am  -   -   -  20 25 mph 1023.8mb 54f 48f
5:50am 7ft 9s 6s 20 25 mph 1023.9mb 54f 48f
5:40am 7ft  -  6s 20 25 mph 1023.6mb 54f 48f
5:30am  -   -   -  22 27 mph 1023.6mb 54f 48f
5:20am  -   -   -  22 27 mph 1023.5mb 54f 48f
5:10am  -   -   -  22 25 mph 1023.6mb 54f 48f
5:00am  -   -   -  22 27 mph 1023.6mb 54f 48f
4:50am 7ft 8s 6s 22 29 mph 1023.8mb 54f 48f
4:40am 7ft  -  6s 20 25 mph 1023.8mb 54f 48f
4:30am  -   -   -  20 25 mph 1023.6mb 54f 48f
4:20am  -   -   -  22 27 mph 1023.6mb 54f 48f
4:10am  -   -   -  20 27 mph 1023.5mb 54f 48f
4:00am  -   -   -  22 27 mph 1023.5mb 54f 48f
3:50am 7ft 8s 7s 22 29 mph 1023.5mb 54f 48f
3:40am 7ft  -  7s 20 27 mph 1023.5mb 54f 48f
3:30am  -   -   -  20 27 mph 1023.5mb 54f 48f
3:20am  -   -   -  20 25 mph 1023.5mb 54f 49f
3:10am  -   -   -  20 25 mph 1023.6mb 54f 49f
3:00am  -   -   -  20 25 mph 1023.8mb 54f 49f
2:50am 7ft 8s 6s 20 25 mph 1024mb 54f 49f
2:40am  -   -   -  18 22 mph 1024.2mb 54f 49f
2:30am  -   -   -  18 25 mph 1024.3mb 54f 49f
2:20am  -   -   -  18 22 mph 1024.3mb 54f 49f
2:10am  -   -   -  18 22 mph 1024.3mb 54f 49f
2:00am  -   -   -  18 22 mph 1024.3mb 54f 49f
1:50am 6ft 8s 6s 18 22 mph 1024.3mb 54f 49f
1:40am 6ft  -  6s 20 25 mph 1024.5mb 54f 49f
1:30am  -   -   -  18 25 mph 1024.3mb 54f 49f
1:20am  -   -   -  18 22 mph 1024.5mb 54f 49f
1:10am  -   -   -  18 22 mph 1024.5mb 54f 49f
1:00am  -   -   -  18 22 mph 1024.5mb 54f 49f
12:50am 7ft 8s 7s 16 20 mph 1024.5mb 54f 49f
12:40am 7ft  -  7s 16 20 mph 1024.5mb 54f 49f
12:30am  -   -   -  16 20 mph 1024.5mb 54f 49f
12:20am  -   -   -  18 22 mph 1024.5mb 54f 49f
12:10am  -   -   -  18 22 mph 1024.5mb 54f 49f
12:00am  -   -   -  18 25 mph 1024.3mb 54f 49f
Thu 02/23 11:50pm 6.5ft 8s 6s 18 22 mph 1024.3mb 54f 49f
11:40pm  -   -   -  20 25 mph 1024.2mb 54f 49f
11:30pm  -   -   -  20 25 mph 1024.3mb 54f 49f
11:20pm  -   -   -  20 25 mph 1024.3mb 54f 49f
11:10pm  -   -   -  20 27 mph 1024.2mb 54f 49f
11:00pm  -   -   -  22 27 mph 1024mb 54f 49f
10:50pm 6.5ft 11s 6s 22 25 mph 1024mb 54f 49f
10:40pm 6.5ft  -  6s 20 25 mph 1024mb 54f 49f
10:30pm  -   -   -  20 27 mph 1024mb 54f 49f
10:20pm  -   -   -  20 25 mph 1023.9mb 54f 49f
10:10pm  -   -   -  20 25 mph 1024mb 54f 49f
10:00pm  -   -   -  20 25 mph 1023.8mb 54f 49f
9:50pm 6.5ft 8s 6s 22 27 mph 1023.6mb 54f 49f
9:40pm  -   -   -  22 29 mph 1023.5mb 54f 49f
9:30pm  -   -   -  22 29 mph 1023.5mb - 49f
9:20pm  -   -   -  22 29 mph 1023.5mb 54f 49f
9:10pm  -   -   -  22 29 mph 1023.3mb 54f 49f
9:00pm  -   -   -  25 29 mph 1023.1mb 54f 49f
8:50pm 7.5ft 8s 6s 25 29 mph 1023mb - 49f
8:40pm 7.5ft  -  6s 25 29 mph 1023mb 54f 50f
8:30pm  -   -   -  25 29 mph 1023mb 54f 50f
8:20pm  -   -   -  27 29 mph 1023mb 54f 50f
8:10pm  -   -   -  25 31 mph 1023mb 54f 50f
8:00pm  -   -   -  25 31 mph 1023mb 54f 49f
7:50pm  -   -   -  25 31 mph 1023mb 54f 49f
7:40pm  -   -   -  27 31 mph 1023mb 54f 49f
7:30pm  -   -   -  25 31 mph 1023mb 54f 49f
7:20pm  -   -   -  27 31 mph 1023mb 54f 49f
7:10pm  -   -   -  27 31 mph 1023.1mb 54f 49f
7:00pm  -   -   -  25 31 mph 1023.3mb 54f 49f
6:50pm 7.5ft 8s 6s 25 31 mph 1023.1mb 54f 49f
6:40pm 7.5ft  -  6s 27 31 mph 1023.3mb 54f 49f
6:30pm  -   -   -  27 31 mph 1023.3mb 54f 49f
6:20pm  -   -   -  27 31 mph 1023.1mb 54f 49f
6:10pm  -   -   -  27 34 mph 1023mb 54f 49f
6:00pm  -   -   -  27 31 mph 1023mb 54f 49f
5:50pm 8ft 8s 6s 27 34 mph 1023mb 54f 49f
5:40pm  -   -   -  27 34 mph 1023mb 54f 49f
5:20pm  -   -   -  27 34 mph 1022.9mb 54f 49f
5:10pm  -   -   -  29 34 mph 1022.9mb 54f 49f
5:00pm  -   -   -  29 36 mph 1022.9mb - 49f
4:50pm 8ft 8s 6s 27 34 mph 1022.9mb 54f 49f
4:40pm 8ft  -  6s 27 31 mph 1023mb 54f 49f
4:30pm  -   -   -  27 34 mph 1023mb 54f 49f
4:20pm  -   -   -  27 34 mph 1023mb 54f 49f
4:10pm  -   -   -  27 34 mph 1023mb 54f 49f
4:00pm  -   -   -  27 34 mph 1023mb 54f 49f
3:50pm 7.5ft 8s 6s 29 34 mph 1023mb 54f 49f
3:40pm 7.5ft  -  6s 27 31 mph 1023mb 54f 49f
3:30pm  -   -   -  27 31 mph 1023.1mb 54f 49f
3:20pm  -   -   -  27 34 mph 1023mb 54f 49f
3:10pm  -   -   -  25 31 mph 1023mb 54f 49f
3:00pm  -   -   -  27 34 mph 1023mb 54f 49f
2:50pm 7.5ft 7s 6s 27 36 mph 1023.2mb - 49f
2:40pm 7.5ft  -  6s 29 34 mph 1023.1mb 54f 49f
2:30pm  -   -   -  27 34 mph 1023.1mb 54f 49f
2:20pm  -   -   -  27 34 mph 1023.1mb 54f 49f
2:10pm  -   -   -  27 31 mph 1023.1mb 54f 48f
2:00pm  -   -   -  25 31 mph 1023.5mb 54f 48f
1:50pm 7.5ft 11s 6s 25 29 mph 1023.5mb 54f 48f
1:40pm 7.5ft  -  6s 25 31 mph 1023.5mb 54f 48f
1:30pm  -   -   -  27 31 mph 1023.6mb 54f 48f
1:20pm  -   -   -  25 31 mph 1023.8mb 54f 48f
1:10pm  -   -   -  25 29 mph 1023.9mb 54f 48f
1:00pm  -   -   -  25 31 mph 1024mb 54f 48f
12:50pm 7.5ft 12s 6s 25 29 mph 1024mb 54f 48f
12:40pm 7.5ft  -  6s 22 29 mph 1024.3mb 54f 48f
12:30pm  -   -   -  22 29 mph 1024.3mb 54f 48f
12:20pm  -   -   -  22 29 mph 1024.5mb 54f 48f
12:10pm  -   -   -  22 29 mph 1024.8mb 54f 48f
12:00pm  -   -   -  22 27 mph 1024.8mb 54f 48f
11:50am 7.5ft 8s 6s 22 29 mph 1024.8mb 54f 48f
11:40am 7.5ft  -  6s 22 27 mph 1024.8mb 54f 48f
11:30am  -   -   -  22 31 mph 1025mb 54f 48f
11:20am  -   -   -  22 29 mph 1025mb 54f 47f
11:10am  -   -   -  22 27 mph 1025mb 54f 47f
11:00am  -   -   -  22 29 mph 1025mb 54f 47f
10:50am 8.5ft 8s 6s 20 27 mph 1025mb 54f 47f
10:40am 8.5ft  -  6s 20 27 mph 1024.8mb 54f 47f
10:30am  -   -   -  20 25 mph 1024.8mb 54f 47f
10:20am  -   -   -  20 27 mph 1024.8mb 54f 48f
10:10am  -   -   -  20 27 mph 1024.7mb 54f 47f
10:00am  -   -   -  20 25 mph 1024.8mb 54f 47f
9:50am 7ft 8s 6s 22 27 mph 1024.8mb 54f 47f
9:40am 7ft  -  6s 22 27 mph 1024.8mb 54f 47f
9:30am  -   -   -  22 29 mph 1024.8mb 54f 47f
9:20am  -   -   -  22 27 mph 1024.8mb 54f 47f
9:10am  -   -   -  20 27 mph 1024.8mb 54f 48f
9:00am  -   -   -  22 29 mph 1025mb 54f 47f
8:50am 7ft 8s 6s 22 29 mph 1024.8mb 54f 47f
8:40am 7ft  -  6s 22 29 mph 1025mb 54f 47f
8:30am  -   -   -  22 27 mph 1024.8mb 54f 47f
8:20am  -   -   -  25 31 mph 1024.7mb 54f 47f
8:10am  -   -   -  25 29 mph 1024.5mb 54f 47f
8:00am  -   -   -  25 31 mph 1024.5mb 54f 47f
7:50am 8ft 11s 6s 22 29 mph 1024.5mb 54f 47f
7:40am 8ft  -  6s 22 29 mph 1024.3mb - 47f
7:30am  -   -   -  22 29 mph 1024mb 54f 47f
7:20am  -   -   -  25 31 mph 1024mb 54f 47f
7:10am  -   -   -  25 31 mph 1023.9mb 54f 47f
7:00am  -   -   -  22 31 mph 1024mb 54f 47f
6:50am 7.5ft 11s 6s 25 31 mph 1023.9mb 54f 47f
6:40am 7.5ft  -  6s 25 31 mph 1023.8mb 54f 47f
6:30am  -   -   -  22 31 mph 1023.6mb 54f 47f
6:20am  -   -   -  22 31 mph 1023.5mb 54f 47f
6:10am  -   -   -  25 31 mph 1023.5mb 54f 47f
6:00am  -   -   -  25 31 mph 1023.5mb 54f 47f
5:50am 7.5ft 8s 6s 25 29 mph 1023.4mb 54f 47f
5:40am 7.5ft  -  6s 22 29 mph 1023.5mb 54f 47f
5:30am  -   -   -  20 27 mph 1023.4mb 54f 47f
5:20am  -   -   -  22 27 mph 1023.4mb 54f 47f
5:10am  -   -   -  25 31 mph 1023.4mb 54f 47f
5:00am  -   -   -  25 31 mph 1023.4mb 54f 47f
4:50am 7.5ft 13s 6s 22 29 mph 1023.4mb 54f 47f
4:40am 7.5ft  -  6s 22 29 mph 1023.4mb - 47f
4:30am  -   -   -  20 27 mph 1023.4mb 54f 47f
4:20am  -   -   -  20 27 mph 1023.4mb 54f 47f
4:10am  -   -   -  20 25 mph 1023.4mb 54f 47f
4:00am  -   -   -  22 27 mph 1023.4mb 54f 47f
3:50am 8ft 13s 6s 22 29 mph 1023.3mb 54f 47f
3:40am 8ft  -  6s 25 29 mph 1023.3mb 54f 47f
3:30am  -   -   -  25 31 mph 1023.3mb 54f 47f
3:20am  -   -   -  25 31 mph 1023.1mb 54f 47f
3:10am  -   -   -  25 34 mph 1023.4mb 54f 47f
3:00am  -   -   -  25 29 mph 1023.5mb 54f 46f
2:50am 8ft 8s 7s 27 34 mph 1023.5mb 54f 47f
2:40am 8ft  -  7s 25 29 mph 1023.6mb 54f 47f
2:30am  -   -   -  22 31 mph 1023.6mb 54f 48f
2:20am  -   -   -  25 34 mph 1023.6mb 54f 47f
2:10am  -   -   -  25 31 mph 1023.6mb 54f 47f
2:00am  -   -   -  25 29 mph 1023.6mb 54f 47f
1:50am 8ft 11s 6s 22 31 mph 1023.6mb 54f 47f
12:50am 8.5ft 14s 7s 25 29 mph 1023.9mb 54f 48f
Wed 02/22 11:50pm 8ft 11s 6s 25 29 mph 1024mb 54f 48f
10:50pm 8.5ft 11s 7s 25 34 mph 1024.3mb 55f 49f
9:50pm 9ft 11s 7s 31 43 mph 1024.5mb 55f 48f
8:50pm 10.5ft 11s 7s 31 36 mph 1024mb 55f 49f
7:50pm 11ft 11s 7s 29 36 mph 1023.6mb - 50f
6:50pm 10ft 13s 7s 29 38 mph 1023.5mb 55f 50f
5:50pm 10.5ft 13s 7s 25 34 mph 1023.9mb 55f 49f
4:50pm 10ft 13s 7s 25 31 mph 1024mb 55f 50f
3:50pm 9ft 14s 7s 25 31 mph 1024.3mb 55f 50f
2:50pm 9.5ft  -  7s 27 34 mph 1024.5mb - 51f
1:50pm 10.5ft 14s 8s 20 27 mph 1024.7mb 55f 51f
12:50pm 10ft 13s 8s 16 22 mph 1025.2mb 55f 51f
11:50am 9ft 12s 8s 16 20 mph 1026mb 55f 51f
10:50am 9ft 13s 8s 13 16 mph 1026mb 55f 51f
9:50am 9.5ft 12s 8s 16 20 mph 1026mb 55f 51f
8:50am 10ft 14s 8s 18 22 mph 1026mb 54f 51f
7:50am 11ft 14s 8s 18 22 mph 1025.5mb 54f 51f
6:50am 10ft 15s 8s 20 27 mph 1024.8mb 55f 51f
5:50am 10ft 12s 8s 20 27 mph 1024.5mb 55f 51f
4:50am 11ft 15s 9s 20 25 mph 1024.8mb 55f 52f
2:50am 10ft 14s 8s 20 25 mph 1024.8mb 55f 52f
2:40am 10ft  -  8s 18 25 mph 1025mb 55f 52f
2:30am  -   -   -  18 22 mph 1024.8mb 55f 52f
2:20am  -   -   -  18 25 mph 1025mb 55f 52f
2:10am  -   -   -  18 25 mph 1025mb 55f 52f
2:00am  -   -   -  20 25 mph 1025mb 55f 52f
1:50am 10.5ft 14s 9s 20 25 mph 1025mb 55f 52f
1:40am 10.5ft  -  9s 20 25 mph 1025mb 55f 52f
1:30am  -   -   -  20 25 mph 1025mb 55f 52f
1:20am  -   -   -  18 22 mph 1025mb 55f 52f
1:10am  -   -   -  18 22 mph 1025.2mb 55f 52f
1:00am  -   -   -  18 22 mph 1025.2mb 55f 52f
12:50am 9.5ft 15s 8s 20 25 mph 1025.2mb 55f 52f
12:40am 9.5ft  -  8s 20 25 mph 1025mb 55f 53f
12:30am  -   -   -  20 25 mph 1025mb 55f 53f
12:20am  -   -   -  20 25 mph 1025mb 55f 53f
12:10am  -   -   -  20 25 mph 1025mb 55f 53f
12:00am  -   -   -  18 22 mph 1024.8mb 55f 53f
Tue 02/21 11:50pm 11ft 15s 8s 18 25 mph 1024.8mb 55f 53f
11:40pm  -   -   -  18 22 mph 1024.8mb 55f 53f
11:30pm  -   -   -  18 27 mph 1024.7mb 55f 53f
11:20pm  -   -   -  18 22 mph 1024.7mb 55f 53f
11:10pm  -   -   -  20 25 mph 1024.7mb 55f 53f
11:00pm  -   -   -  20 25 mph 1024.7mb 55f 53f
10:50pm 10ft 16s 8s 20 25 mph 1024.5mb 55f 53f
10:40pm 10ft  -  8s 18 25 mph 1024.5mb 55f 53f
10:30pm  -   -   -  18 22 mph 1024.7mb 55f 53f
10:20pm  -   -   -  18 25 mph 1024.5mb 55f 53f
10:10pm  -   -   -  18 22 mph 1024.8mb 55f 53f
10:00pm  -   -   -  16 20 mph 1024.8mb 55f 53f
9:50pm 10ft 11s 8s 16 20 mph 1024.7mb 55f 53f
9:40pm 10ft  -  8s 18 22 mph 1024.5mb 55f 53f
9:30pm  -   -   -  18 22 mph 1024.5mb 55f 53f
9:20pm  -   -   -  18 22 mph 1024.5mb 55f 53f
9:10pm  -   -   -  18 22 mph 1024.5mb - 53f
9:00pm  -   -   -  20 25 mph 1024.3mb 55f 53f
8:50pm 9.5ft 11s 8s 18 22 mph 1024.3mb 55f 53f
8:40pm 9.5ft  -  8s 18 22 mph 1024mb 55f 53f
8:30pm  -   -   -  18 22 mph 1024mb 55f 53f
8:20pm  -   -   -  18 22 mph 1023.9mb 55f 53f
8:10pm  -   -   -  18 22 mph 1023.8mb 55f 53f
8:00pm  -   -   -  18 22 mph 1023.6mb 55f 53f
7:50pm 9.5ft 9s 7s 18 22 mph 1023.6mb 55f 53f
7:40pm 9.5ft  -  7s 18 22 mph 1023.6mb 55f 53f
7:30pm  -   -   -  18 22 mph 1023.5mb 55f 53f
7:20pm  -   -   -  18 25 mph 1023.6mb 55f 53f
7:10pm  -   -   -  18 22 mph 1023.4mb 55f 53f
7:00pm  -   -   -  18 22 mph 1023.5mb 55f 53f
6:50pm 10ft 11s 8s 18 22 mph 1023.4mb 55f 53f
6:40pm  -   -   -  16 20 mph 1023.1mb 55f 53f
6:30pm  -   -   -  18 20 mph 1023mb 55f 53f
6:20pm  -   -   -  16 22 mph 1023mb 55f 53f
6:10pm  -   -   -  13 18 mph 1023mb 55f 53f
6:00pm  -   -   -  13 18 mph 1022.9mb 55f 53f
5:50pm 10ft 11s 8s 13 18 mph 1022.8mb 55f 53f
5:40pm  -   -   -  16 18 mph 1022.8mb 55f 53f
5:30pm  -   -   -  16 20 mph 1022.8mb 55f 53f
5:20pm  -   -   -  13 18 mph 1022.8mb - 53f
5:10pm  -   -   -  13 18 mph 1022.8mb 55f 53f
5:00pm  -   -   -  13 18 mph 1022.9mb 55f 53f
4:50pm 11ft 10s 8s 11 18 mph 1022.8mb 55f 53f
4:40pm 11ft  -  8s 9 11 mph 1022.8mb 55f 52f
4:30pm  -   -   -  13 25 mph 1022.8mb 55f 52f
4:20pm  -   -   -  16 25 mph 1022.5mb 55f 53f
4:10pm  -   -   -  13 16 mph 1022.5mb 55f 53f
4:00pm  -   -   -  11 16 mph 1022.6mb 55f 53f
3:50pm 10.5ft 11s 8s 13 16 mph 1022.6mb 55f 53f
3:40pm 10.5ft  -  8s 11 16 mph 1022.8mb 55f 54f
3:30pm  -   -   -  13 16 mph 1022.8mb 55f 53f
3:20pm  -   -   -  11 16 mph 1022.8mb 55f 54f
3:10pm  -   -   -  11 13 mph 1022.6mb 55f 54f
3:00pm  -   -   -  13 16 mph 1022.5mb 55f 54f
2:50pm 10ft 11s 8s 11 16 mph 1022.5mb 55f 53f
2:40pm  -   -   -  11 16 mph 1022.5mb 55f 53f
2:30pm  -   -   -  9 13 mph 1022.5mb 55f 53f
2:20pm  -   -   -  9 13 mph 1022.5mb 55f 53f
2:10pm  -   -   -  9 13 mph 1022.6mb - 53f
2:00pm  -   -   -  9 13 mph 1022.6mb 55f 53f
1:50pm 10ft 12s 8s 9 13 mph 1022.6mb 55f 54f
1:40pm  -   -   -  9 11 mph 1022.6mb 55f 53f
1:30pm  -   -   -  4 9 mph 1022.8mb 55f 53f
1:20pm  -   -   -  7 9 mph 1022.9mb 55f 53f
1:10pm  -   -   -  7 9 mph 1022.9mb 55f 53f